sensor_id;sensor_type;location;lat;lon;timestamp;temperature;humidity
26821;DHT22;37186;51.394;5.454;2023-07-20T00:01:25;21.10;63.00
26821;DHT22;37186;51.394;5.454;2023-07-20T00:04:25;21.10;63.20
26821;DHT22;37186;51.394;5.454;2023-07-20T00:07:26;21.00;63.10
26821;DHT22;37186;51.394;5.454;2023-07-20T00:10:26;21.00;63.10
26821;DHT22;37186;51.394;5.454;2023-07-20T00:13:27;21.00;63.10
26821;DHT22;37186;51.394;5.454;2023-07-20T00:16:28;21.00;63.20
26821;DHT22;37186;51.394;5.454;2023-07-20T00:19:28;20.90;63.20
26821;DHT22;37186;51.394;5.454;2023-07-20T00:22:29;20.90;63.00
26821;DHT22;37186;51.394;5.454;2023-07-20T00:25:30;20.90;63.40
26821;DHT22;37186;51.394;5.454;2023-07-20T00:28:30;20.80;63.40
26821;DHT22;37186;51.394;5.454;2023-07-20T00:31:31;20.80;63.40
26821;DHT22;37186;51.394;5.454;2023-07-20T00:34:32;20.80;63.50
26821;DHT22;37186;51.394;5.454;2023-07-20T00:37:33;20.80;63.60
26821;DHT22;37186;51.394;5.454;2023-07-20T00:40:40;20.70;63.10
26821;DHT22;37186;51.394;5.454;2023-07-20T00:43:41;20.70;63.50
26821;DHT22;37186;51.394;5.454;2023-07-20T00:46:41;20.70;63.30
26821;DHT22;37186;51.394;5.454;2023-07-20T00:49:43;20.60;63.50
26821;DHT22;37186;51.394;5.454;2023-07-20T00:52:44;20.60;63.50
26821;DHT22;37186;51.394;5.454;2023-07-20T00:55:45;20.60;63.70
26821;DHT22;37186;51.394;5.454;2023-07-20T00:58:46;20.50;63.40
26821;DHT22;37186;51.394;5.454;2023-07-20T01:01:46;20.50;63.60
26821;DHT22;37186;51.394;5.454;2023-07-20T01:04:47;20.50;63.60
26821;DHT22;37186;51.394;5.454;2023-07-20T01:07:58;20.50;63.70
26821;DHT22;37186;51.394;5.454;2023-07-20T01:11:09;20.40;63.70
26821;DHT22;37186;51.394;5.454;2023-07-20T01:14:12;20.40;64.80
26821;DHT22;37186;51.394;5.454;2023-07-20T01:17:12;20.40;63.80
26821;DHT22;37186;51.394;5.454;2023-07-20T01:20:15;20.30;63.70
26821;DHT22;37186;51.394;5.454;2023-07-20T01:23:48;20.30;63.80
26821;DHT22;37186;51.394;5.454;2023-07-20T01:33:28;20.20;63.90
26821;DHT22;37186;51.394;5.454;2023-07-20T01:36:36;20.20;64.20
26821;DHT22;37186;51.394;5.454;2023-07-20T01:39:37;20.20;63.90
26821;DHT22;37186;51.394;5.454;2023-07-20T01:42:44;20.10;63.90
26821;DHT22;37186;51.394;5.454;2023-07-20T01:45:45;20.10;64.00
26821;DHT22;37186;51.394;5.454;2023-07-20T01:48:45;20.10;64.20
26821;DHT22;37186;51.394;5.454;2023-07-20T01:51:46;20.10;64.10
26821;DHT22;37186;51.394;5.454;2023-07-20T01:54:47;20.00;64.30
26821;DHT22;37186;51.394;5.454;2023-07-20T01:57:47;20.00;64.10
26821;DHT22;37186;51.394;5.454;2023-07-20T02:00:48;20.00;64.20
26821;DHT22;37186;51.394;5.454;2023-07-20T02:03:48;20.00;63.80
26821;DHT22;37186;51.394;5.454;2023-07-20T02:06:49;19.90;64.00
26821;DHT22;37186;51.394;5.454;2023-07-20T02:09:49;19.90;64.40
26821;DHT22;37186;51.394;5.454;2023-07-20T02:12:50;19.90;64.90
26821;DHT22;37186;51.394;5.454;2023-07-20T02:15:50;19.90;64.30
26821;DHT22;37186;51.394;5.454;2023-07-20T02:18:52;19.90;64.30
26821;DHT22;37186;51.394;5.454;2023-07-20T02:21:53;19.80;64.80
26821;DHT22;37186;51.394;5.454;2023-07-20T02:24:53;19.80;64.50
26821;DHT22;37186;51.394;5.454;2023-07-20T02:27:55;19.80;65.30
26821;DHT22;37186;51.394;5.454;2023-07-20T02:30:56;19.80;64.60
26821;DHT22;37186;51.394;5.454;2023-07-20T02:33:57;19.80;64.60
26821;DHT22;37186;51.394;5.454;2023-07-20T02:36:57;19.80;64.40
26821;DHT22;37186;51.394;5.454;2023-07-20T02:39:59;19.80;64.60
26821;DHT22;37186;51.394;5.454;2023-07-20T02:43:00;19.80;64.80
26821;DHT22;37186;51.394;5.454;2023-07-20T02:46:01;19.80;65.10
26821;DHT22;37186;51.394;5.454;2023-07-20T02:49:02;19.80;64.90
26821;DHT22;37186;51.394;5.454;2023-07-20T02:52:02;19.70;64.80
26821;DHT22;37186;51.394;5.454;2023-07-20T02:55:03;19.70;64.70
26821;DHT22;37186;51.394;5.454;2023-07-20T02:58:04;19.70;64.70
26821;DHT22;37186;51.394;5.454;2023-07-20T03:01:04;19.70;64.90
26821;DHT22;37186;51.394;5.454;2023-07-20T03:04:05;19.70;65.00
26821;DHT22;37186;51.394;5.454;2023-07-20T03:07:06;19.70;64.90
26821;DHT22;37186;51.394;5.454;2023-07-20T03:10:08;19.70;65.00
26821;DHT22;37186;51.394;5.454;2023-07-20T03:13:09;19.70;64.90
26821;DHT22;37186;51.394;5.454;2023-07-20T03:16:12;19.70;65.00
26821;DHT22;37186;51.394;5.454;2023-07-20T03:19:12;19.70;64.90
26821;DHT22;37186;51.394;5.454;2023-07-20T03:22:13;19.80;65.00
26821;DHT22;37186;51.394;5.454;2023-07-20T03:25:13;19.70;65.20
26821;DHT22;37186;51.394;5.454;2023-07-20T03:28:14;19.80;65.00
26821;DHT22;37186;51.394;5.454;2023-07-20T03:31:15;19.80;64.80
26821;DHT22;37186;51.394;5.454;2023-07-20T03:34:16;19.80;65.10
26821;DHT22;37186;51.394;5.454;2023-07-20T03:37:17;19.80;65.50
26821;DHT22;37186;51.394;5.454;2023-07-20T03:40:17;19.80;65.00
26821;DHT22;37186;51.394;5.454;2023-07-20T03:43:18;19.80;65.30
26821;DHT22;37186;51.394;5.454;2023-07-20T03:46:19;19.80;65.40
26821;DHT22;37186;51.394;5.454;2023-07-20T03:49:19;19.80;65.20
26821;DHT22;37186;51.394;5.454;2023-07-20T03:52:20;19.80;65.40
26821;DHT22;37186;51.394;5.454;2023-07-20T03:55:21;19.70;65.90
26821;DHT22;37186;51.394;5.454;2023-07-20T03:58:21;19.70;65.30
26821;DHT22;37186;51.394;5.454;2023-07-20T04:01:22;19.70;65.10
26821;DHT22;37186;51.394;5.454;2023-07-20T04:04:22;19.70;66.30
26821;DHT22;37186;51.394;5.454;2023-07-20T04:07:23;19.70;66.10
26821;DHT22;37186;51.394;5.454;2023-07-20T04:10:23;19.70;65.90
26821;DHT22;37186;51.394;5.454;2023-07-20T04:13:24;19.70;65.50
26821;DHT22;37186;51.394;5.454;2023-07-20T04:16:24;19.70;66.60
26821;DHT22;37186;51.394;5.454;2023-07-20T04:19:26;19.70;65.70
26821;DHT22;37186;51.394;5.454;2023-07-20T04:22:27;19.70;65.70
26821;DHT22;37186;51.394;5.454;2023-07-20T04:25:27;19.70;65.80
26821;DHT22;37186;51.394;5.454;2023-07-20T04:28:28;19.70;65.70
26821;DHT22;37186;51.394;5.454;2023-07-20T04:31:28;19.70;65.60
26821;DHT22;37186;51.394;5.454;2023-07-20T04:34:29;19.70;66.30
26821;DHT22;37186;51.394;5.454;2023-07-20T04:37:29;19.70;65.70
26821;DHT22;37186;51.394;5.454;2023-07-20T04:40:30;19.70;65.80
26821;DHT22;37186;51.394;5.454;2023-07-20T04:43:30;19.70;65.80
26821;DHT22;37186;51.394;5.454;2023-07-20T04:46:31;19.70;66.10
26821;DHT22;37186;51.394;5.454;2023-07-20T04:49:31;19.70;66.00
26821;DHT22;37186;51.394;5.454;2023-07-20T04:52:32;19.70;65.90
26821;DHT22;37186;51.394;5.454;2023-07-20T04:55:33;19.70;66.00
26821;DHT22;37186;51.394;5.454;2023-07-20T04:58:37;19.70;66.20
26821;DHT22;37186;51.394;5.454;2023-07-20T05:01:37;19.70;66.60
26821;DHT22;37186;51.394;5.454;2023-07-20T05:04:38;19.70;66.00
26821;DHT22;37186;51.394;5.454;2023-07-20T05:07:38;19.70;66.20
26821;DHT22;37186;51.394;5.454;2023-07-20T05:10:39;19.70;65.90
26821;DHT22;37186;51.394;5.454;2023-07-20T05:13:40;19.60;65.90
26821;DHT22;37186;51.394;5.454;2023-07-20T05:16:41;19.70;66.10
26821;DHT22;37186;51.394;5.454;2023-07-20T05:19:41;19.70;66.10
26821;DHT22;37186;51.394;5.454;2023-07-20T05:22:42;19.60;66.00
26821;DHT22;37186;51.394;5.454;2023-07-20T05:25:43;19.60;65.80
26821;DHT22;37186;51.394;5.454;2023-07-20T05:28:44;19.70;66.00
26821;DHT22;37186;51.394;5.454;2023-07-20T05:31:44;19.60;65.90
26821;DHT22;37186;51.394;5.454;2023-07-20T05:34:45;19.60;66.10
26821;DHT22;37186;51.394;5.454;2023-07-20T05:37:45;19.60;65.90
26821;DHT22;37186;51.394;5.454;2023-07-20T05:40:46;19.60;66.00
26821;DHT22;37186;51.394;5.454;2023-07-20T05:43:47;19.60;66.10
26821;DHT22;37186;51.394;5.454;2023-07-20T05:46:47;19.60;66.00
26821;DHT22;37186;51.394;5.454;2023-07-20T05:49:48;19.60;66.10
26821;DHT22;37186;51.394;5.454;2023-07-20T05:52:49;19.60;65.90
26821;DHT22;37186;51.394;5.454;2023-07-20T05:55:55;19.60;66.80
26821;DHT22;37186;51.394;5.454;2023-07-20T05:58:56;19.60;66.40
26821;DHT22;37186;51.394;5.454;2023-07-20T06:01:56;19.60;66.30
26821;DHT22;37186;51.394;5.454;2023-07-20T06:04:57;19.50;66.00
26821;DHT22;37186;51.394;5.454;2023-07-20T06:07:58;19.50;66.70
26821;DHT22;37186;51.394;5.454;2023-07-20T06:11:00;19.60;66.40
26821;DHT22;37186;51.394;5.454;2023-07-20T06:14:01;19.50;66.40
26821;DHT22;37186;51.394;5.454;2023-07-20T06:17:01;19.60;66.30
26821;DHT22;37186;51.394;5.454;2023-07-20T06:20:03;19.60;67.20
26821;DHT22;37186;51.394;5.454;2023-07-20T06:23:03;19.60;66.40
26821;DHT22;37186;51.394;5.454;2023-07-20T06:26:06;19.50;66.80
26821;DHT22;37186;51.394;5.454;2023-07-20T06:29:06;19.60;66.60
26821;DHT22;37186;51.394;5.454;2023-07-20T06:32:07;19.60;66.30
26821;DHT22;37186;51.394;5.454;2023-07-20T06:35:08;19.50;66.60
26821;DHT22;37186;51.394;5.454;2023-07-20T06:38:09;19.60;67.40
26821;DHT22;37186;51.394;5.454;2023-07-20T06:41:09;19.60;66.70
26821;DHT22;37186;51.394;5.454;2023-07-20T06:44:10;19.60;66.70
26821;DHT22;37186;51.394;5.454;2023-07-20T06:47:11;19.60;66.60
26821;DHT22;37186;51.394;5.454;2023-07-20T06:50:12;19.60;66.50
26821;DHT22;37186;51.394;5.454;2023-07-20T06:53:13;19.60;66.60
26821;DHT22;37186;51.394;5.454;2023-07-20T06:56:14;19.60;66.50
26821;DHT22;37186;51.394;5.454;2023-07-20T06:59:14;19.60;66.40
26821;DHT22;37186;51.394;5.454;2023-07-20T07:02:15;19.60;66.80
26821;DHT22;37186;51.394;5.454;2023-07-20T07:05:15;19.60;66.60
26821;DHT22;37186;51.394;5.454;2023-07-20T07:08:16;19.60;66.90
26821;DHT22;37186;51.394;5.454;2023-07-20T07:11:17;19.60;67.30
26821;DHT22;37186;51.394;5.454;2023-07-20T07:14:17;19.70;66.80
26821;DHT22;37186;51.394;5.454;2023-07-20T07:17:18;19.60;66.50
26821;DHT22;37186;51.394;5.454;2023-07-20T07:20:18;19.60;66.50
26821;DHT22;37186;51.394;5.454;2023-07-20T07:23:19;19.60;66.60
26821;DHT22;37186;51.394;5.454;2023-07-20T07:26:20;19.60;66.70
26821;DHT22;37186;51.394;5.454;2023-07-20T07:29:21;19.60;66.40
26821;DHT22;37186;51.394;5.454;2023-07-20T07:32:22;19.60;66.50
26821;DHT22;37186;51.394;5.454;2023-07-20T07:35:22;19.70;66.30
26821;DHT22;37186;51.394;5.454;2023-07-20T07:38:23;19.70;66.70
26821;DHT22;37186;51.394;5.454;2023-07-20T07:41:24;19.70;66.60
26821;DHT22;37186;51.394;5.454;2023-07-20T07:44:24;19.70;66.80
26821;DHT22;37186;51.394;5.454;2023-07-20T07:47:25;19.80;66.70
26821;DHT22;37186;51.394;5.454;2023-07-20T07:50:25;19.80;66.40
26821;DHT22;37186;51.394;5.454;2023-07-20T07:53:27;19.80;66.30
26821;DHT22;37186;51.394;5.454;2023-07-20T07:56:27;19.80;66.50
26821;DHT22;37186;51.394;5.454;2023-07-20T07:59:28;19.80;66.40
26821;DHT22;37186;51.394;5.454;2023-07-20T08:02:28;19.80;66.40
26821;DHT22;37186;51.394;5.454;2023-07-20T08:05:29;19.90;66.40
26821;DHT22;37186;51.394;5.454;2023-07-20T08:08:30;19.90;66.40
26821;DHT22;37186;51.394;5.454;2023-07-20T08:11:31;19.90;66.70
26821;DHT22;37186;51.394;5.454;2023-07-20T08:14:34;20.00;66.50
26821;DHT22;37186;51.394;5.454;2023-07-20T08:17:34;20.00;66.70
26821;DHT22;37186;51.394;5.454;2023-07-20T08:20:35;20.00;66.90
26821;DHT22;37186;51.394;5.454;2023-07-20T08:23:36;20.00;67.00
26821;DHT22;37186;51.394;5.454;2023-07-20T08:26:36;20.10;66.70
26821;DHT22;37186;51.394;5.454;2023-07-20T08:29:37;20.10;66.60
26821;DHT22;37186;51.394;5.454;2023-07-20T08:32:38;20.10;66.70
26821;DHT22;37186;51.394;5.454;2023-07-20T08:35:38;20.20;66.50
26821;DHT22;37186;51.394;5.454;2023-07-20T08:38:39;20.20;66.60
26821;DHT22;37186;51.394;5.454;2023-07-20T08:41:46;20.20;66.40
26821;DHT22;37186;51.394;5.454;2023-07-20T08:44:48;20.20;66.40
26821;DHT22;37186;51.394;5.454;2023-07-20T08:47:50;20.30;66.40
26821;DHT22;37186;51.394;5.454;2023-07-20T08:50:52;20.30;66.40
26821;DHT22;37186;51.394;5.454;2023-07-20T08:53:56;20.30;66.50
26821;DHT22;37186;51.394;5.454;2023-07-20T08:56:58;20.40;66.50
26821;DHT22;37186;51.394;5.454;2023-07-20T09:00:02;20.40;66.40
26821;DHT22;37186;51.394;5.454;2023-07-20T09:03:05;20.40;66.40
26821;DHT22;37186;51.394;5.454;2023-07-20T09:06:06;20.40;66.30
26821;DHT22;37186;51.394;5.454;2023-07-20T09:09:06;20.50;66.20
26821;DHT22;37186;51.394;5.454;2023-07-20T09:12:16;20.50;66.10
26821;DHT22;37186;51.394;5.454;2023-07-20T09:15:16;20.50;66.10
26821;DHT22;37186;51.394;5.454;2023-07-20T09:18:31;20.50;66.10
26821;DHT22;37186;51.394;5.454;2023-07-20T09:21:31;20.60;66.20
26821;DHT22;37186;51.394;5.454;2023-07-20T09:24:32;20.60;66.00
26821;DHT22;37186;51.394;5.454;2023-07-20T09:27:35;20.60;66.80
26821;DHT22;37186;51.394;5.454;2023-07-20T09:30:36;20.60;66.00
26821;DHT22;37186;51.394;5.454;2023-07-20T09:33:38;20.60;66.00
26821;DHT22;37186;51.394;5.454;2023-07-20T09:36:39;20.70;65.90
26821;DHT22;37186;51.394;5.454;2023-07-20T09:39:44;20.70;65.90
26821;DHT22;37186;51.394;5.454;2023-07-20T09:42:45;20.70;66.00
26821;DHT22;37186;51.394;5.454;2023-07-20T09:45:46;20.80;65.90
26821;DHT22;37186;51.394;5.454;2023-07-20T09:48:53;20.80;66.00
26821;DHT22;37186;51.394;5.454;2023-07-20T09:51:55;20.80;65.90
26821;DHT22;37186;51.394;5.454;2023-07-20T09:54:57;20.90;65.90
26821;DHT22;37186;51.394;5.454;2023-07-20T09:57:59;20.90;65.70
26821;DHT22;37186;51.394;5.454;2023-07-20T10:01:03;21.00;66.00
26821;DHT22;37186;51.394;5.454;2023-07-20T10:04:09;21.00;66.00
26821;DHT22;37186;51.394;5.454;2023-07-20T10:07:11;21.00;65.90
26821;DHT22;37186;51.394;5.454;2023-07-20T10:10:14;21.10;65.70
26821;DHT22;37186;51.394;5.454;2023-07-20T10:13:26;21.10;65.70
26821;DHT22;37186;51.394;5.454;2023-07-20T10:16:34;21.20;65.60
26821;DHT22;37186;51.394;5.454;2023-07-20T10:19:43;21.20;65.70
26821;DHT22;37186;51.394;5.454;2023-07-20T10:22:46;21.30;65.60
26821;DHT22;37186;51.394;5.454;2023-07-20T10:25:48;21.30;65.80
26821;DHT22;37186;51.394;5.454;2023-07-20T10:28:50;21.40;65.80
26821;DHT22;37186;51.394;5.454;2023-07-20T10:31:51;21.50;65.80
26821;DHT22;37186;51.394;5.454;2023-07-20T10:34:52;21.50;65.70
26821;DHT22;37186;51.394;5.454;2023-07-20T10:38:01;21.60;65.30
26821;DHT22;37186;51.394;5.454;2023-07-20T10:41:02;21.60;65.10
26821;DHT22;37186;51.394;5.454;2023-07-20T10:44:04;21.60;64.80
26821;DHT22;37186;51.394;5.454;2023-07-20T10:47:12;21.70;64.80
26821;DHT22;37186;51.394;5.454;2023-07-20T10:50:13;21.70;64.60
26821;DHT22;37186;51.394;5.454;2023-07-20T10:53:18;21.70;64.60
26821;DHT22;37186;51.394;5.454;2023-07-20T10:56:23;21.80;64.60
26821;DHT22;37186;51.394;5.454;2023-07-20T11:02:42;21.90;64.10
26821;DHT22;37186;51.394;5.454;2023-07-20T11:05:42;21.90;64.10
26821;DHT22;37186;51.394;5.454;2023-07-20T11:08:43;21.90;64.30
26821;DHT22;37186;51.394;5.454;2023-07-20T11:11:46;21.90;64.10
26821;DHT22;37186;51.394;5.454;2023-07-20T11:14:54;22.00;63.70
26821;DHT22;37186;51.394;5.454;2023-07-20T11:18:12;22.00;64.00
26821;DHT22;37186;51.394;5.454;2023-07-20T11:21:13;22.10;64.20
26821;DHT22;37186;51.394;5.454;2023-07-20T11:24:13;22.10;64.00
26821;DHT22;37186;51.394;5.454;2023-07-20T11:27:14;22.20;63.70
26821;DHT22;37186;51.394;5.454;2023-07-20T11:30:17;22.20;62.60
26821;DHT22;37186;51.394;5.454;2023-07-20T11:33:18;22.20;63.20
26821;DHT22;37186;51.394;5.454;2023-07-20T11:36:19;22.30;63.10
26821;DHT22;37186;51.394;5.454;2023-07-20T11:39:21;22.30;63.00
26821;DHT22;37186;51.394;5.454;2023-07-20T11:42:22;22.30;63.10
26821;DHT22;37186;51.394;5.454;2023-07-20T11:45:23;22.40;62.50
26821;DHT22;37186;51.394;5.454;2023-07-20T11:48:23;22.40;62.70
26821;DHT22;37186;51.394;5.454;2023-07-20T11:51:24;22.30;62.70
26821;DHT22;37186;51.394;5.454;2023-07-20T11:54:25;22.40;62.80
26821;DHT22;37186;51.394;5.454;2023-07-20T11:57:25;22.40;62.90
26821;DHT22;37186;51.394;5.454;2023-07-20T12:00:27;22.40;63.00
26821;DHT22;37186;51.394;5.454;2023-07-20T12:03:27;22.50;63.00
26821;DHT22;37186;51.394;5.454;2023-07-20T12:06:28;22.50;62.90
26821;DHT22;37186;51.394;5.454;2023-07-20T12:09:29;22.60;63.00
26821;DHT22;37186;51.394;5.454;2023-07-20T12:12:34;22.60;63.00
26821;DHT22;37186;51.394;5.454;2023-07-20T12:15:37;22.60;62.80
26821;DHT22;37186;51.394;5.454;2023-07-20T12:18:38;22.70;62.60
26821;DHT22;37186;51.394;5.454;2023-07-20T12:21:40;22.60;62.70
26821;DHT22;37186;51.394;5.454;2023-07-20T12:24:42;22.70;62.70
26821;DHT22;37186;51.394;5.454;2023-07-20T12:27:44;22.70;62.20
26821;DHT22;37186;51.394;5.454;2023-07-20T12:30:46;22.70;62.20
26821;DHT22;37186;51.394;5.454;2023-07-20T12:33:47;22.70;61.10
26821;DHT22;37186;51.394;5.454;2023-07-20T12:36:47;22.60;61.60
26821;DHT22;37186;51.394;5.454;2023-07-20T12:39:48;22.60;61.90
26821;DHT22;37186;51.394;5.454;2023-07-20T12:42:48;22.60;62.00
26821;DHT22;37186;51.394;5.454;2023-07-20T12:45:49;22.70;62.10
26821;DHT22;37186;51.394;5.454;2023-07-20T12:48:50;22.60;62.20
26821;DHT22;37186;51.394;5.454;2023-07-20T12:51:50;22.60;62.00
26821;DHT22;37186;51.394;5.454;2023-07-20T12:54:51;22.60;62.10
26821;DHT22;37186;51.394;5.454;2023-07-20T12:57:51;22.60;62.10
26821;DHT22;37186;51.394;5.454;2023-07-20T13:00:53;22.60;62.10
26821;DHT22;37186;51.394;5.454;2023-07-20T13:03:53;22.60;63.00
26821;DHT22;37186;51.394;5.454;2023-07-20T13:06:54;22.60;62.30
26821;DHT22;37186;51.394;5.454;2023-07-20T13:09:56;22.60;62.20
26821;DHT22;37186;51.394;5.454;2023-07-20T13:12:56;22.60;62.20
26821;DHT22;37186;51.394;5.454;2023-07-20T13:15:57;22.60;62.10
26821;DHT22;37186;51.394;5.454;2023-07-20T13:18:58;22.60;62.00
26821;DHT22;37186;51.394;5.454;2023-07-20T13:21:58;22.60;61.90
26821;DHT22;37186;51.394;5.454;2023-07-20T13:24:59;22.60;61.90
26821;DHT22;37186;51.394;5.454;2023-07-20T13:27:59;22.70;62.20
26821;DHT22;37186;51.394;5.454;2023-07-20T13:31:00;22.70;62.30
26821;DHT22;37186;51.394;5.454;2023-07-20T13:34:00;22.70;61.90
26821;DHT22;37186;51.394;5.454;2023-07-20T13:37:02;22.70;61.30
26821;DHT22;37186;51.394;5.454;2023-07-20T13:40:03;22.80;62.00
26821;DHT22;37186;51.394;5.454;2023-07-20T13:43:05;22.80;61.60
26821;DHT22;37186;51.394;5.454;2023-07-20T13:46:06;22.90;62.20
26821;DHT22;37186;51.394;5.454;2023-07-20T13:49:06;22.90;62.30
26821;DHT22;37186;51.394;5.454;2023-07-20T13:52:07;23.00;62.30
26821;DHT22;37186;51.394;5.454;2023-07-20T13:55:08;23.00;61.90
26821;DHT22;37186;51.394;5.454;2023-07-20T13:58:08;23.10;62.20
26821;DHT22;37186;51.394;5.454;2023-07-20T14:01:10;23.20;62.10
26821;DHT22;37186;51.394;5.454;2023-07-20T14:04:11;23.20;61.80
26821;DHT22;37186;51.394;5.454;2023-07-20T14:07:12;23.30;62.10
26821;DHT22;37186;51.394;5.454;2023-07-20T14:10:13;23.40;62.00
26821;DHT22;37186;51.394;5.454;2023-07-20T14:13:14;23.50;62.20
26821;DHT22;37186;51.394;5.454;2023-07-20T14:16:15;23.50;62.20
26821;DHT22;37186;51.394;5.454;2023-07-20T14:19:15;23.50;62.10
26821;DHT22;37186;51.394;5.454;2023-07-20T14:22:16;23.50;61.50
26821;DHT22;37186;51.394;5.454;2023-07-20T14:25:16;23.60;61.70
26821;DHT22;37186;51.394;5.454;2023-07-20T14:28:17;23.60;61.70
26821;DHT22;37186;51.394;5.454;2023-07-20T14:31:18;23.60;61.70
26821;DHT22;37186;51.394;5.454;2023-07-20T14:34:20;23.70;61.70
26821;DHT22;37186;51.394;5.454;2023-07-20T14:37:20;23.60;61.40
26821;DHT22;37186;51.394;5.454;2023-07-20T14:40:21;23.60;61.40
26821;DHT22;37186;51.394;5.454;2023-07-20T14:43:21;23.60;61.40
26821;DHT22;37186;51.394;5.454;2023-07-20T14:46:22;23.60;61.70
26821;DHT22;37186;51.394;5.454;2023-07-20T14:49:23;23.60;61.30
26821;DHT22;37186;51.394;5.454;2023-07-20T14:52:23;23.60;61.30
26821;DHT22;37186;51.394;5.454;2023-07-20T14:55:24;23.60;60.50
26821;DHT22;37186;51.394;5.454;2023-07-20T14:58:25;23.60;60.80
26821;DHT22;37186;51.394;5.454;2023-07-20T15:01:26;23.60;60.80
26821;DHT22;37186;51.394;5.454;2023-07-20T15:04:26;23.60;61.00
26821;DHT22;37186;51.394;5.454;2023-07-20T15:07:27;23.60;60.60
26821;DHT22;37186;51.394;5.454;2023-07-20T15:10:28;23.60;60.80
26821;DHT22;37186;51.394;5.454;2023-07-20T15:13:29;23.50;60.70
26821;DHT22;37186;51.394;5.454;2023-07-20T15:16:29;23.50;60.50
26821;DHT22;37186;51.394;5.454;2023-07-20T15:19:30;23.50;60.70
26821;DHT22;37186;51.394;5.454;2023-07-20T15:22:31;23.50;60.70
26821;DHT22;37186;51.394;5.454;2023-07-20T15:25:32;23.50;60.80
26821;DHT22;37186;51.394;5.454;2023-07-20T15:28:33;23.50;61.30
26821;DHT22;37186;51.394;5.454;2023-07-20T15:31:34;23.50;60.60
26821;DHT22;37186;51.394;5.454;2023-07-20T15:34:36;23.50;60.80
26821;DHT22;37186;51.394;5.454;2023-07-20T15:37:37;23.50;61.00
26821;DHT22;37186;51.394;5.454;2023-07-20T15:40:43;23.50;61.00
26821;DHT22;37186;51.394;5.454;2023-07-20T15:43:43;23.50;61.10
26821;DHT22;37186;51.394;5.454;2023-07-20T15:46:46;23.50;61.10
26821;DHT22;37186;51.394;5.454;2023-07-20T15:49:47;23.40;61.10
26821;DHT22;37186;51.394;5.454;2023-07-20T15:52:48;23.50;61.10
26821;DHT22;37186;51.394;5.454;2023-07-20T15:55:53;23.40;61.10
26821;DHT22;37186;51.394;5.454;2023-07-20T15:58:55;23.40;61.20
26821;DHT22;37186;51.394;5.454;2023-07-20T16:01:55;23.40;61.10
26821;DHT22;37186;51.394;5.454;2023-07-20T16:04:56;23.40;61.20
26821;DHT22;37186;51.394;5.454;2023-07-20T16:07:56;23.40;61.10
26821;DHT22;37186;51.394;5.454;2023-07-20T16:10:57;23.40;61.20
26821;DHT22;37186;51.394;5.454;2023-07-20T16:13:58;23.40;61.20
26821;DHT22;37186;51.394;5.454;2023-07-20T16:16:58;23.30;61.20
26821;DHT22;37186;51.394;5.454;2023-07-20T16:19:59;23.30;61.10
26821;DHT22;37186;51.394;5.454;2023-07-20T16:22:59;23.30;61.20
26821;DHT22;37186;51.394;5.454;2023-07-20T16:26:00;23.40;61.30
26821;DHT22;37186;51.394;5.454;2023-07-20T16:29:00;23.30;61.30
26821;DHT22;37186;51.394;5.454;2023-07-20T16:32:02;23.30;61.40
26821;DHT22;37186;51.394;5.454;2023-07-20T16:35:03;23.30;61.50
26821;DHT22;37186;51.394;5.454;2023-07-20T16:38:04;23.30;62.30
26821;DHT22;37186;51.394;5.454;2023-07-20T16:41:06;23.30;61.50
26821;DHT22;37186;51.394;5.454;2023-07-20T16:44:10;23.20;61.50
26821;DHT22;37186;51.394;5.454;2023-07-20T16:47:10;23.30;61.50
26821;DHT22;37186;51.394;5.454;2023-07-20T16:50:11;23.20;61.50
26821;DHT22;37186;51.394;5.454;2023-07-20T16:53:11;23.20;61.50
26821;DHT22;37186;51.394;5.454;2023-07-20T16:56:12;23.20;61.60
26821;DHT22;37186;51.394;5.454;2023-07-20T16:59:13;23.20;61.60
26821;DHT22;37186;51.394;5.454;2023-07-20T17:02:14;23.20;61.60
26821;DHT22;37186;51.394;5.454;2023-07-20T17:05:14;23.20;61.70
26821;DHT22;37186;51.394;5.454;2023-07-20T17:08:15;23.20;61.70
26821;DHT22;37186;51.394;5.454;2023-07-20T17:11:16;23.20;61.70
26821;DHT22;37186;51.394;5.454;2023-07-20T17:14:16;23.10;61.70
26821;DHT22;37186;51.394;5.454;2023-07-20T17:17:17;23.10;61.70
26821;DHT22;37186;51.394;5.454;2023-07-20T17:20:18;23.10;61.80
26821;DHT22;37186;51.394;5.454;2023-07-20T17:23:20;23.10;61.80
26821;DHT22;37186;51.394;5.454;2023-07-20T17:26:20;23.10;61.80
26821;DHT22;37186;51.394;5.454;2023-07-20T17:29:21;23.10;61.80
26821;DHT22;37186;51.394;5.454;2023-07-20T17:32:22;23.10;61.90
26821;DHT22;37186;51.394;5.454;2023-07-20T17:35:22;23.10;61.90
26821;DHT22;37186;51.394;5.454;2023-07-20T17:38:23;23.10;61.50
26821;DHT22;37186;51.394;5.454;2023-07-20T17:41:23;23.00;61.00
26821;DHT22;37186;51.394;5.454;2023-07-20T17:44:24;23.00;61.20
26821;DHT22;37186;51.394;5.454;2023-07-20T17:47:25;22.90;60.90
26821;DHT22;37186;51.394;5.454;2023-07-20T17:50:25;22.80;60.80
26821;DHT22;37186;51.394;5.454;2023-07-20T17:53:28;22.80;60.60
26821;DHT22;37186;51.394;5.454;2023-07-20T17:56:28;22.70;60.60
26821;DHT22;37186;51.394;5.454;2023-07-20T17:59:29;22.70;60.90
26821;DHT22;37186;51.394;5.454;2023-07-20T18:02:30;22.60;60.90
26821;DHT22;37186;51.394;5.454;2023-07-20T18:05:30;22.60;60.90
26821;DHT22;37186;51.394;5.454;2023-07-20T18:08:31;22.60;60.90
26821;DHT22;37186;51.394;5.454;2023-07-20T18:11:32;22.50;60.80
26821;DHT22;37186;51.394;5.454;2023-07-20T18:14:33;22.40;60.60
26821;DHT22;37186;51.394;5.454;2023-07-20T18:17:35;22.40;60.80
26821;DHT22;37186;51.394;5.454;2023-07-20T18:20:35;22.40;60.80
26821;DHT22;37186;51.394;5.454;2023-07-20T18:23:36;22.30;60.70
26821;DHT22;37186;51.394;5.454;2023-07-20T18:26:36;22.30;60.80
26821;DHT22;37186;51.394;5.454;2023-07-20T18:29:37;22.30;60.90
26821;DHT22;37186;51.394;5.454;2023-07-20T18:32:38;22.20;61.00
26821;DHT22;37186;51.394;5.454;2023-07-20T18:35:39;22.20;61.20
26821;DHT22;37186;51.394;5.454;2023-07-20T18:38:41;22.10;61.30
26821;DHT22;37186;51.394;5.454;2023-07-20T18:41:41;22.10;61.70
26821;DHT22;37186;51.394;5.454;2023-07-20T18:44:42;22.20;61.50
26821;DHT22;37186;51.394;5.454;2023-07-20T18:47:45;22.10;61.50
26821;DHT22;37186;51.394;5.454;2023-07-20T18:50:47;22.10;61.40
26821;DHT22;37186;51.394;5.454;2023-07-20T18:53:48;22.10;61.50
26821;DHT22;37186;51.394;5.454;2023-07-20T18:56:48;22.00;61.50
26821;DHT22;37186;51.394;5.454;2023-07-20T18:59:49;22.00;61.50
26821;DHT22;37186;51.394;5.454;2023-07-20T19:02:49;22.00;61.60
26821;DHT22;37186;51.394;5.454;2023-07-20T19:05:50;22.00;61.60
26821;DHT22;37186;51.394;5.454;2023-07-20T19:08:51;22.00;61.60
26821;DHT22;37186;51.394;5.454;2023-07-20T19:11:52;22.00;61.60
26821;DHT22;37186;51.394;5.454;2023-07-20T19:14:52;22.00;62.50